Algonquin, Illinois
Current Conditions -  °F | °C
As of 5:52 AM on Monday 20 Oct 2014 (Local Time) from KDPA Reporting Station
Scattered Clouds Scattered Clouds  
Wind Chill: 43°   Ceiling: Unl
Heat Index: 45°   Visibility: 10mi
Dew Point: 42°   Wind: 5mph
Humidity: 90%   Direction: 190°S
Pressure: 29.8"   Gusts: NA
Location:  42.17°N, 88.29°W
Report Text: KDPA 201052Z 19004KT 10SM SCT110 07/06 A2980 RMK AO2 SLP093 T00720056
Loading
Personal Weather Stations






























Interactive Weather Map
Tropical Storm Tracking
New forecast layout! Learn more

10-Day Weather Forecast

Advertisements
Track Severe Weather on mobile